Time;durP1;ratioP1;P1;durP2;ratioP2;P2;SDS_P1;SDS_P2;PMS_P1;PMS_P2;Temp;Humidity;BMP_temperature;BMP_pressure;BME280_temperature;BME280_humidity;BME280_pressure;Samples;Min_cycle;Max_cycle;Signal;HPM_P1;HPM_P2
2021/12/02 00:01:16;;;;;;;4.80;2.97;;;3.60;91.20;;;;;;5035924;28;20057;-68
2021/12/02 00:03:44;;;;;;;5.28;2.35;;;3.60;91.90;;;;;;5051842;28;20045;-67
2021/12/02 00:06:12;;;;;;;8.50;2.72;;;3.60;91.40;;;;;;5032593;28;20415;-67
2021/12/02 00:08:40;;;;;;;6.20;2.20;;;3.60;90.80;;;;;;5031720;28;20501;-66
2021/12/02 00:11:07;;;;;;;7.18;2.20;;;3.60;90.20;;;;;;5026117;28;20056;-66
2021/12/02 00:13:48;;;;;;;5.50;2.00;;;3.60;91.30;;;;;;5034987;28;20049;-66
2021/12/02 00:21:24;;;;;;;12.88;3.13;;;3.50;91.30;;;;;;5051460;28;20180;-67
2021/12/02 00:23:51;;;;;;;6.50;2.00;;;3.50;91.60;;;;;;5051080;28;20401;-66
2021/12/02 00:26:19;;;;;;;7.55;2.53;;;3.50;91.10;;;;;;5051819;28;20507;-67
2021/12/02 00:28:53;;;;;;;6.45;1.92;;;3.50;90.70;;;;;;5052812;28;20055;-67
2021/12/02 00:31:22;;;;;;;10.05;2.50;;;3.50;91.50;;;;;;5051591;28;20088;-67
2021/12/02 00:33:51;;;;;;;6.57;2.13;;;3.50;90.40;;;;;;5051103;28;20121;-67
2021/12/02 00:36:20;;;;;;;7.85;2.20;;;3.50;90.10;;;;;;5031834;28;20093;-67
2021/12/02 00:38:47;;;;;;;5.50;1.85;;;3.40;90.90;;;;;;5025551;28;20048;-67
2021/12/02 00:41:15;;;;;;;7.60;1.95;;;3.40;90.30;;;;;;5031405;28;20064;-66
2021/12/02 00:43:43;;;;;;;12.15;3.15;;;3.40;91.00;;;;;;5049022;28;20064;-67
2021/12/02 00:46:11;;;;;;;17.85;3.17;;;3.30;90.70;;;;;;5050351;28;20048;-66
2021/12/02 00:48:38;;;;;;;8.52;2.30;;;3.30;91.30;;;;;;5050228;28;20489;-67
2021/12/02 00:51:05;;;;;;;6.13;2.13;;;3.30;91.20;;;;;;5051875;28;20044;-66
2021/12/02 00:53:33;;;;;;;5.68;1.70;;;3.30;90.80;;;;;;5046166;28;20053;-66
2021/12/02 00:56:05;;;;;;;5.50;2.28;;;3.30;91.00;;;;;;5050555;28;20056;-66
2021/12/02 00:58:33;;;;;;;6.45;1.90;;;3.20;91.00;;;;;;5052655;28;20404;-66
2021/12/02 01:01:00;;;;;;;10.45;2.10;;;3.20;91.60;;;;;;5051362;28;20056;-68
2021/12/02 01:03:34;;;;;;;6.15;1.75;;;3.20;91.10;;;;;;5054271;28;20527;-67
2021/12/02 01:06:02;;;;;;;5.97;2.10;;;3.20;91.30;;;;;;5035005;28;20049;-66
2021/12/02 01:08:30;;;;;;;7.00;2.33;;;3.10;91.70;;;;;;5034578;28;20477;-67
2021/12/02 01:13:53;;;;;;;8.40;1.80;;;3.10;91.50;;;;;;5049414;28;20381;-66
2021/12/02 01:16:20;;;;;;;10.48;1.90;;;3.10;91.70;;;;;;5049842;28;20049;-67
2021/12/02 01:18:48;;;;;;;5.65;2.20;;;3.10;91.50;;;;;;5049986;28;20163;-66
2021/12/02 01:21:16;;;;;;;7.80;2.22;;;3.00;92.40;;;;;;5049984;28;20124;-69
2021/12/02 01:23:44;;;;;;;4.68;2.35;;;3.00;92.60;;;;;;5049777;28;20090;-66
2021/12/02 01:26:11;;;;;;;6.90;2.03;;;3.00;92.10;;;;;;5049361;28;20044;-67
2021/12/02 01:28:38;;;;;;;7.95;2.08;;;3.00;92.30;;;;;;5050483;28;20044;-63
2021/12/02 01:31:05;;;;;;;7.72;1.80;;;3.00;92.40;;;;;;5051441;28;20503;-74
2021/12/02 01:33:32;;;;;;;10.52;2.05;;;2.90;92.20;;;;;;5051245;28;20055;-67
2021/12/02 01:36:01;;;;;;;5.38;1.65;;;2.90;91.70;;;;;;5032880;28;20088;-67
2021/12/02 01:38:28;;;;;;;8.30;1.80;;;2.90;91.10;;;;;;5050103;28;20523;-66
2021/12/02 01:40:56;;;;;;;13.10;2.20;;;2.90;92.10;;;;;;5013818;28;20129;-67
2021/12/02 01:43:48;;;;;;;7.60;1.90;;;2.90;91.80;;;;;;5037634;28;20512;-67
2021/12/02 01:46:25;;;;;;;6.05;2.15;;;2.90;92.40;;;;;;5050083;28;20412;-68
2021/12/02 01:49:04;;;;;;;4.45;1.60;;;2.80;92.00;;;;;;5042538;28;20041;-67
2021/12/02 01:51:45;;;;;;;13.38;2.83;;;2.80;92.20;;;;;;5049625;28;20103;-67
2021/12/02 01:54:14;;;;;;;6.35;2.08;;;2.80;92.10;;;;;;5051246;28;20124;-68
2021/12/02 01:56:49;;;;;;;6.25;2.20;;;2.80;91.70;;;;;;5048543;28;20500;-67
2021/12/02 01:59:21;;;;;;;8.27;2.45;;;2.70;91.80;;;;;;5029865;28;20160;-67
2021/12/02 02:01:51;;;;;;;5.82;2.08;;;2.70;92.30;;;;;;5044522;28;20369;-67
2021/12/02 02:04:19;;;;;;;7.00;2.40;;;2.70;92.30;;;;;;5049655;28;20523;-67
2021/12/02 02:07:00;;;;;;;5.82;1.85;;;2.70;92.10;;;;;;5049011;28;20512;-67
2021/12/02 02:09:29;;;;;;;5.85;1.73;;;2.70;93.90;;;;;;5033080;28;20045;-68
2021/12/02 02:11:56;;;;;;;4.93;1.73;;;2.60;92.70;;;;;;5049323;28;20045;-67
2021/12/02 02:14:26;;;;;;;6.63;2.88;;;2.60;93.00;;;;;;5032995;28;20049;-66
2021/12/02 02:16:54;;;;;;;6.45;2.58;;;2.60;92.20;;;;;;5032021;28;20049;-66
2021/12/02 02:19:21;;;;;;;6.30;2.35;;;2.60;93.70;;;;;;5016793;28;20049;-66
2021/12/02 02:21:52;;;;;;;4.22;1.60;;;2.60;93.40;;;;;;5049546;28;20048;-66
2021/12/02 02:24:19;;;;;;;10.25;1.90;;;2.50;92.90;;;;;;5050679;28;20473;-67
2021/12/02 02:26:46;;;;;;;7.93;2.53;;;2.50;93.20;;;;;;5032751;28;20453;-67
2021/12/02 02:29:17;;;;;;;10.10;1.67;;;2.50;94.00;;;;;;5050955;28;20417;-67
2021/12/02 02:31:45;;;;;;;4.13;1.70;;;2.50;94.10;;;;;;5032711;28;20077;-67
2021/12/02 02:34:12;;;;;;;9.45;3.55;;;2.50;94.80;;;;;;5048177;28;20485;-66
2021/12/02 02:36:48;;;;;;;11.45;2.45;;;2.50;94.00;;;;;;5048829;28;20089;-66
2021/12/02 02:39:16;;;;;;;5.68;2.10;;;2.50;94.10;;;;;;5033004;28;20045;-67
2021/12/02 02:41:45;;;;;;;9.05;3.60;;;2.50;93.30;;;;;;5049184;28;20045;-70
2021/12/02 02:44:12;;;;;;;6.93;1.95;;;2.50;94.80;;;;;;5050184;28;20139;-66
2021/12/02 02:46:40;;;;;;;4.53;1.80;;;2.50;93.60;;;;;;5048235;28;20041;-67
2021/12/02 02:49:12;;;;;;;5.75;1.75;;;2.60;94.40;;;;;;5048577;28;20055;-67
2021/12/02 02:51:40;;;;;;;7.97;1.98;;;2.50;94.00;;;;;;5028888;28;20045;-67
2021/12/02 02:54:10;;;;;;;7.13;1.95;;;2.60;94.10;;;;;;5040935;28;20044;-67
2021/12/02 02:57:04;;;;;;;7.78;1.77;;;2.60;93.50;;;;;;5045341;28;20048;-67
2021/12/02 03:02:08;;;;;;;6.85;1.83;;;2.70;94.30;;;;;;5048510;28;20107;-70
2021/12/02 03:07:25;;;;;;;8.07;1.90;;;2.70;93.10;;;;;;5032835;28;20056;-67
2021/12/02 03:09:59;;;;;;;5.13;2.45;;;2.70;93.00;;;;;;5047630;28;20558;-66
2021/12/02 03:12:41;;;;;;;3.38;1.70;;;2.80;93.60;;;;;;5053418;28;20053;-67
2021/12/02 03:17:36;;;;;;;5.18;1.73;;;2.80;93.00;;;;;;5053396;28;20061;-67
2021/12/02 03:20:03;;;;;;;4.80;1.75;;;2.80;93.10;;;;;;5052149;28;20053;-67
2021/12/02 03:22:33;;;;;;;;;;;2.80;93.10;;;;;;5054128;28;20045;-68
2021/12/02 03:25:00;;;;;;;6.93;1.70;;;2.80;92.10;;;;;;5052464;28;19949;-67
2021/12/02 03:27:27;;;;;;;10.73;2.10;;;2.80;93.70;;;;;;5052344;28;20044;-66
2021/12/02 03:29:54;;;;;;;4.93;2.03;;;2.80;92.70;;;;;;5052018;28;20361;-67
2021/12/02 03:32:21;;;;;;;2.55;1.60;;;2.80;93.00;;;;;;5053781;28;20045;-70
2021/12/02 03:34:48;;;;;;;7.25;1.67;;;2.80;93.10;;;;;;5052540;28;20374;-68
2021/12/02 03:37:16;;;;;;;6.53;1.77;;;2.80;93.20;;;;;;5056020;28;20049;-68
2021/12/02 03:39:43;;;;;;;5.32;2.15;;;2.90;91.50;;;;;;5037646;28;20068;-67
2021/12/02 03:42:10;;;;;;;4.05;1.88;;;2.90;92.60;;;;;;5053581;28;20476;-66
2021/12/02 03:44:37;;;;;;;3.88;1.60;;;2.90;92.00;;;;;;5035871;28;20049;-65
2021/12/02 03:47:04;;;;;;;4.10;2.13;;;2.90;93.20;;;;;;5051944;28;20119;-67
2021/12/02 03:49:31;;;;;;;6.97;1.70;;;2.90;92.30;;;;;;5051286;28;20114;-68
2021/12/02 03:51:58;;;;;;;7.30;1.80;;;2.90;92.40;;;;;;5052007;28;20041;-66
2021/12/02 03:54:25;;;;;;;2.50;1.40;;;2.90;91.70;;;;;;5051918;28;20052;-67
2021/12/02 03:56:52;;;;;;;3.80;1.73;;;2.90;93.10;;;;;;5051401;28;20065;-67
2021/12/02 03:59:19;;;;;;;5.03;1.80;;;2.80;91.60;;;;;;5051463;28;20087;-66
2021/12/02 04:01:47;;;;;;;5.78;2.30;;;2.80;92.80;;;;;;5044867;28;20044;-67
2021/12/02 04:04:15;;;;;;;6.88;2.17;;;2.90;93.60;;;;;;5051977;28;20134;-66
2021/12/02 04:06:42;;;;;;;6.47;2.85;;;2.90;92.20;;;;;;5051753;28;20135;-67
2021/12/02 04:16:58;;;;;;;7.35;2.22;;;2.90;91.20;;;;;;5052785;28;20523;-67
2021/12/02 04:19:25;;;;;;;3.83;1.58;;;2.90;92.60;;;;;;5050458;28;20063;-69
2021/12/02 04:21:52;;;;;;;6.18;2.15;;;2.90;91.40;;;;;;5052306;28;20045;-66
2021/12/02 04:24:19;;;;;;;7.90;2.08;;;2.90;92.20;;;;;;5051466;28;20067;-67
2021/12/02 04:26:47;;;;;;;6.90;1.85;;;2.90;92.50;;;;;;5034987;28;20052;-66
2021/12/02 04:29:14;;;;;;;4.28;1.30;;;2.90;91.60;;;;;;5050840;28;20110;-66
2021/12/02 04:31:45;;;;;;;5.05;1.67;;;2.90;91.30;;;;;;5035668;28;20146;-71
2021/12/02 04:34:13;;;;;;;7.32;2.10;;;2.90;92.10;;;;;;5033520;28;20098;-66
2021/12/02 04:36:40;;;;;;;9.45;2.00;;;2.90;92.10;;;;;;5051286;28;20107;-67
2021/12/02 04:39:06;;;;;;;11.40;2.63;;;2.90;92.50;;;;;;5050822;28;20056;-67
2021/12/02 04:41:33;;;;;;;4.95;1.40;;;2.90;92.30;;;;;;5052766;28;20055;-66
2021/12/02 04:44:01;;;;;;;2.75;1.35;;;2.90;92.00;;;;;;5051133;28;20048;-66
2021/12/02 04:46:28;;;;;;;4.32;1.80;;;2.90;92.60;;;;;;5051213;28;20056;-65
2021/12/02 04:48:55;;;;;;;3.35;2.10;;;2.90;92.00;;;;;;5050765;28;20045;-66
2021/12/02 04:51:22;;;;;;;7.60;2.10;;;2.90;91.50;;;;;;5051919;28;20523;-66
2021/12/02 04:53:49;;;;;;;7.22;3.92;;;2.90;91.70;;;;;;5050578;28;20041;-66
2021/12/02 04:56:16;;;;;;;4.70;1.70;;;2.90;92.20;;;;;;5046087;28;20401;-65
2021/12/02 04:58:43;;;;;;;8.52;2.45;;;2.90;90.80;;;;;;5050944;28;20045;-66
2021/12/02 05:01:10;;;;;;;4.10;1.70;;;2.90;92.30;;;;;;5046960;28;20053;-66
2021/12/02 05:03:37;;;;;;;5.32;1.60;;;2.80;91.90;;;;;;5050894;28;20045;-66
2021/12/02 05:06:04;;;;;;;11.02;1.90;;;2.90;92.20;;;;;;5049926;28;20051;-69
2021/12/02 05:08:31;;;;;;;2.90;1.30;;;2.90;92.30;;;;;;5050203;28;20161;-66
2021/12/02 05:10:58;;;;;;;5.03;1.48;;;2.90;91.60;;;;;;5050195;28;20044;-66
2021/12/02 05:13:24;;;;;;;6.45;2.80;;;2.90;91.70;;;;;;5051981;28;20408;-67
2021/12/02 05:15:51;;;;;;;3.90;1.38;;;2.90;93.10;;;;;;5051366;28;20049;-67
2021/12/02 05:18:19;;;;;;;6.38;1.48;;;2.90;92.30;;;;;;5049938;28;20063;-66
2021/12/02 05:20:47;;;;;;;3.83;1.67;;;2.90;92.60;;;;;;5033823;28;20045;-67
2021/12/02 05:23:13;;;;;;;5.05;1.60;;;2.90;92.90;;;;;;5049766;28;20504;-67
2021/12/02 05:25:44;;;;;;;3.90;1.50;;;2.90;93.10;;;;;;5051793;28;20045;-69
2021/12/02 05:28:11;;;;;;;;;;;2.90;91.80;;;;;;5039642;28;20123;-66
2021/12/02 05:30:38;;;;;;;12.95;3.92;;;2.90;92.90;;;;;;5051721;28;19928;-66
2021/12/02 05:33:05;;;;;;;6.75;1.73;;;2.90;92.10;;;;;;5050096;28;20045;-68
2021/12/02 05:35:32;;;;;;;5.78;1.70;;;2.90;92.50;;;;;;5049277;28;20089;-67
2021/12/02 05:37:59;;;;;;;4.03;1.65;;;2.90;91.10;;;;;;5051040;28;20075;-67
2021/12/02 05:40:26;;;;;;;5.45;2.40;;;2.90;91.80;;;;;;5050321;28;20052;-68
2021/12/02 05:42:53;;;;;;;5.70;1.85;;;2.90;91.30;;;;;;5033454;28;20057;-68
2021/12/02 05:45:20;;;;;;;3.55;1.50;;;2.90;92.20;;;;;;5048850;28;20080;-66
2021/12/02 05:47:47;;;;;;;5.30;1.67;;;2.90;92.10;;;;;;5048916;28;20097;-67
2021/12/02 05:50:14;;;;;;;5.90;2.03;;;2.90;90.90;;;;;;5049646;28;20053;-67
2021/12/02 05:52:41;;;;;;;10.25;1.42;;;3.00;90.40;;;;;;5050539;28;20097;-66
2021/12/02 05:55:08;;;;;;;3.92;1.42;;;3.00;90.10;;;;;;5029614;28;20049;-66
2021/12/02 05:57:35;;;;;;;4.78;1.33;;;3.00;89.00;;;;;;5049686;28;20174;-66
2021/12/02 06:00:04;;;;;;;3.08;1.38;;;3.10;91.20;;;;;;5050607;28;20120;-65
2021/12/02 06:02:31;;;;;;;5.93;1.40;;;3.10;88.70;;;;;;5048290;28;20052;-66
2021/12/02 06:04:58;;;;;;;6.45;1.40;;;3.10;91.50;;;;;;5050502;28;20366;-65
2021/12/02 06:07:25;;;;;;;3.80;1.40;;;3.20;90.80;;;;;;5053258;28;20123;-67
2021/12/02 06:09:53;;;;;;;7.07;1.42;;;3.20;89.20;;;;;;5053464;28;20049;-67
2021/12/02 06:12:20;;;;;;;2.08;1.10;;;3.30;88.10;;;;;;5053637;28;20040;-66
2021/12/02 06:14:47;;;;;;;6.03;1.90;;;3.30;89.00;;;;;;5031554;28;20060;-67
2021/12/02 06:17:14;;;;;;;1.70;1.10;;;3.30;88.40;;;;;;5049264;28;20057;-67
2021/12/02 06:19:41;;;;;;;3.80;1.55;;;3.30;92.40;;;;;;5048812;28;20061;-66
2021/12/02 06:22:10;;;;;;;3.78;1.98;;;3.30;93.90;;;;;;5032125;28;20041;-67
2021/12/02 06:24:54;;;;;;;2.13;1.50;;;3.20;93.60;;;;;;5047946;28;20057;-67
2021/12/02 06:27:21;;;;;;;4.43;1.20;;;3.20;95.10;;;;;;5048815;28;20048;-67
2021/12/02 06:29:48;;;;;;;3.63;1.23;;;3.10;94.90;;;;;;5048331;28;20044;-67
2021/12/02 06:32:15;;;;;;;3.00;1.13;;;3.10;94.40;;;;;;5048739;28;20053;-67
2021/12/02 06:34:42;;;;;;;4.78;1.15;;;3.10;95.20;;;;;;5049821;28;20041;-68
2021/12/02 06:37:09;;;;;;;5.28;1.58;;;3.10;94.60;;;;;;5049685;28;20097;-67
2021/12/02 06:39:36;;;;;;;1.50;1.08;;;3.10;95.50;;;;;;5048818;28;20055;-66
2021/12/02 06:42:03;;;;;;;3.03;0.73;;;3.00;95.90;;;;;;5045781;28;20045;-68
2021/12/02 06:44:32;;;;;;;31.50;18.67;;;3.00;95.70;;;;;;5046162;28;20045;-69
2021/12/02 06:46:58;;;;;;;80.55;54.33;;;3.10;96.10;;;;;;5046962;28;20084;-65
2021/12/02 06:49:27;;;;;;;7.00;2.65;;;3.00;96.10;;;;;;5047628;28;20098;-66
2021/12/02 06:51:56;;;;;;;3.50;1.42;;;3.00;95.10;;;;;;5047499;28;20053;-69
2021/12/02 06:54:22;;;;;;;4.90;1.25;;;2.90;96.40;;;;;;5046166;28;20504;-65
2021/12/02 06:56:51;;;;;;;3.97;1.30;;;2.80;96.30;;;;;;5046476;28;20049;-65
2021/12/02 06:59:18;;;;;;;4.07;1.23;;;2.70;96.50;;;;;;5046605;28;20053;-68
2021/12/02 07:01:46;;;;;;;3.90;1.75;;;2.70;97.20;;;;;;5036782;28;20080;-68
2021/12/02 07:04:13;;;;;;;17.63;11.60;;;2.60;97.70;;;;;;5026528;28;20493;-67
2021/12/02 07:06:40;;;;;;;109.60;53.75;;;2.60;97.60;;;;;;5027614;28;20136;-65
2021/12/02 07:09:07;;;;;;;23.73;17.92;;;2.50;97.80;;;;;;5016346;28;20088;-67
2021/12/02 07:11:34;;;;;;;228.05;154.25;;;2.50;98.50;;;;;;5023381;28;20099;-66
2021/12/02 07:14:08;;;;;;;70.10;37.28;;;2.50;98.80;;;;;;5040851;28;20136;-66
2021/12/02 07:16:36;;;;;;;8.05;4.32;;;2.40;99.40;;;;;;5046019;28;20181;-66
2021/12/02 07:19:04;;;;;;;4.28;2.47;;;2.30;99.70;;;;;;5045385;28;20515;-72
2021/12/02 07:21:32;;;;;;;5.10;1.60;;;2.20;99.90;;;;;;5046226;28;20387;-68
2021/12/02 07:23:59;;;;;;;2.83;1.27;;;2.20;99.90;;;;;;5045260;28;20404;-66
2021/12/02 07:26:26;;;;;;;5.85;1.80;;;2.20;99.90;;;;;;5043648;28;20522;-71
2021/12/02 07:28:53;;;;;;;3.65;1.42;;;2.20;99.90;;;;;;5044456;28;20071;-68
2021/12/02 07:31:20;;;;;;;2.78;2.03;;;2.10;99.90;;;;;;5043796;28;20444;-68
2021/12/02 07:33:50;;;;;;;6.93;2.10;;;2.10;99.90;;;;;;5025983;28;20053;-68
2021/12/02 07:36:17;;;;;;;3.50;1.92;;;2.00;99.90;;;;;;5026488;28;20053;-67
2021/12/02 07:38:45;;;;;;;5.22;1.90;;;2.00;99.90;;;;;;5035507;28;20057;-67
2021/12/02 07:41:11;;;;;;;5.63;1.50;;;2.00;99.90;;;;;;5029837;28;20061;-67
2021/12/02 07:43:39;;;;;;;5.88;1.98;;;2.00;99.90;;;;;;5046527;28;20105;-67
2021/12/02 07:46:06;;;;;;;5.65;2.47;;;2.00;99.90;;;;;;5046464;28;20045;-67
2021/12/02 07:48:35;;;;;;;8.38;2.05;;;2.00;99.90;;;;;;5046946;28;20048;-67
2021/12/02 07:51:07;;;;;;;;;;;2.00;99.90;;;;;;5028853;28;20880;-67
2021/12/02 07:53:33;;;;;;;5.00;1.88;;;2.00;99.90;;;;;;5044002;28;19931;-66
2021/12/02 07:56:03;;;;;;;5.97;2.22;;;2.00;99.90;;;;;;5046535;28;20485;-66
2021/12/02 07:58:30;;;;;;;;;;;1.90;99.90;;;;;;5016802;28;20056;-66
2021/12/02 08:01:01;;;;;;;6.35;2.42;;;1.90;99.90;;;;;;5049771;28;19932;-67
2021/12/02 08:03:29;;;;;;;8.38;2.90;;;1.90;99.90;;;;;;5035767;28;20475;-67
2021/12/02 08:05:59;;;;;;;3.70;2.17;;;1.80;99.90;;;;;;5048006;28;20095;-65
2021/12/02 08:08:26;;;;;;;3.45;2.05;;;1.80;99.90;;;;;;5048374;28;20140;-67
2021/12/02 08:10:53;;;;;;;9.88;2.30;;;1.80;99.90;;;;;;5048132;28;20053;-66
2021/12/02 08:13:30;;;;;;;7.00;2.80;;;1.80;99.90;;;;;;5051640;28;20049;-66
2021/12/02 08:16:01;;;;;;;357.95;219.30;;;1.80;99.90;;;;;;5051840;28;20053;-64
2021/12/02 08:18:33;;;;;;;58.88;46.00;;;2.00;99.90;;;;;;5053356;28;20056;-66
2021/12/02 08:21:02;;;;;;;10.75;5.75;;;2.00;99.90;;;;;;5049841;28;20387;-68
2021/12/02 08:23:30;;;;;;;9.97;4.33;;;1.90;99.90;;;;;;5033263;28;20049;-66
2021/12/02 08:26:00;;;;;;;5.25;3.00;;;2.00;99.90;;;;;;5050506;28;20084;-66
2021/12/02 08:28:30;;;;;;;6.80;3.03;;;1.90;99.90;;;;;;5035254;28;20063;-67
2021/12/02 08:31:17;;;;;;;5.30;3.13;;;1.90;99.90;;;;;;5049920;28;20083;-68
2021/12/02 08:33:48;;;;;;;7.43;2.67;;;1.90;99.90;;;;;;5055134;28;20049;-68
2021/12/02 08:36:15;;;;;;;4.65;2.47;;;1.90;99.90;;;;;;5049544;28;20049;-68
2021/12/02 08:38:44;;;;;;;11.52;3.70;;;1.90;99.90;;;;;;5050502;28;20043;-64
2021/12/02 08:41:13;;;;;;;6.28;2.92;;;2.00;99.90;;;;;;5033551;28;20055;-66
2021/12/02 08:43:40;;;;;;;6.40;2.75;;;2.00;99.90;;;;;;5051820;28;20052;-67
2021/12/02 08:46:07;;;;;;;9.02;3.10;;;2.00;99.90;;;;;;5033361;28;20044;-67
2021/12/02 08:48:34;;;;;;;7.68;3.20;;;2.00;99.90;;;;;;5049269;28;20051;-65
2021/12/02 08:51:01;;;;;;;10.35;2.72;;;2.10;99.90;;;;;;5049318;28;20045;-65
2021/12/02 08:53:28;;;;;;;4.00;2.25;;;2.10;99.90;;;;;;5050778;28;20072;-66
2021/12/02 08:55:55;;;;;;;7.57;2.70;;;2.10;99.90;;;;;;5050819;28;20079;-68
2021/12/02 08:58:24;;;;;;;16.05;4.35;;;2.10;99.90;;;;;;5051701;28;20044;-66
2021/12/02 09:00:52;;;;;;;9.90;3.63;;;2.10;99.90;;;;;;5050654;28;20071;-69
2021/12/02 09:03:21;;;;;;;9.00;2.92;;;2.10;99.90;;;;;;5038799;28;20475;-68
2021/12/02 09:05:51;;;;;;;5.53;3.42;;;2.10;99.90;;;;;;5050771;28;20061;-65
2021/12/02 09:08:20;;;;;;;14.43;4.10;;;2.20;99.90;;;;;;5049268;28;20512;-73
2021/12/02 09:10:49;;;;;;;6.45;3.35;;;2.20;99.90;;;;;;5050578;28;20057;-68
2021/12/02 09:13:18;;;;;;;8.68;3.08;;;2.20;99.90;;;;;;5051228;28;20049;-66
2021/12/02 09:15:48;;;;;;;14.13;7.32;;;2.30;99.90;;;;;;5050187;28;20507;-65
2021/12/02 09:18:15;;;;;;;12.10;6.78;;;2.30;99.90;;;;;;5032782;28;20060;-66
2021/12/02 09:20:43;;;;;;;12.40;3.80;;;2.30;99.90;;;;;;5051851;28;20041;-65
2021/12/02 09:23:13;;;;;;;9.38;2.78;;;2.40;99.90;;;;;;5051357;28;20085;-66
2021/12/02 09:25:41;;;;;;;7.57;3.25;;;2.40;99.90;;;;;;5049314;28;20056;-77
2021/12/02 09:28:08;;;;;;;12.68;2.45;;;2.40;99.90;;;;;;5033256;28;20045;-77
2021/12/02 09:30:35;;;;;;;11.40;3.20;;;2.50;99.90;;;;;;5050898;28;20096;-78
2021/12/02 09:33:02;;;;;;;4.05;2.70;;;2.50;99.90;;;;;;5051192;28;20041;-74
2021/12/02 09:35:29;;;;;;;6.90;2.03;;;2.50;99.20;;;;;;5051750;28;20084;-77
2021/12/02 09:37:56;;;;;;;6.30;2.20;;;2.60;97.90;;;;;;5033676;28;20084;-76
2021/12/02 09:40:24;;;;;;;11.60;3.45;;;2.60;98.00;;;;;;5049487;28;20053;-77
2021/12/02 09:42:52;;;;;;;4.25;2.10;;;2.70;98.60;;;;;;5052018;28;20409;-77
2021/12/02 09:45:19;;;;;;;4.22;2.05;;;2.70;97.10;;;;;;5051265;28;20520;-76
2021/12/02 09:47:47;;;;;;;7.82;2.40;;;2.80;97.20;;;;;;5051353;28;20242;-77
2021/12/02 09:50:32;;;;;;;5.72;2.30;;;2.80;97.20;;;;;;5050033;28;20047;-76
2021/12/02 09:53:07;;;;;;;8.80;3.05;;;2.90;95.00;;;;;;5049684;28;20051;-76
2021/12/02 09:58:05;;;;;;;4.53;2.08;;;3.00;95.40;;;;;;5051497;28;20049;-78
2021/12/02 10:00:41;;;;;;;5.72;2.40;;;3.10;94.20;;;;;;5051020;28;20056;-77
2021/12/02 10:03:23;;;;;;;4.20;2.00;;;3.10;93.30;;;;;;5042957;28;20130;-77
2021/12/02 10:06:19;;;;;;;4.65;1.73;;;3.10;93.00;;;;;;5051081;28;20045;-77
2021/12/02 10:11:34;;;;;;;5.63;1.67;;;3.20;91.80;;;;;;5030113;28;20069;-77
2021/12/02 10:14:20;;;;;;;9.57;2.42;;;3.20;92.40;;;;;;5014342;28;20057;-76
2021/12/02 10:16:48;;;;;;;8.20;1.73;;;3.30;91.50;;;;;;5029556;28;20045;-76
2021/12/02 10:19:24;;;;;;;6.63;1.80;;;3.30;91.80;;;;;;5040645;28;20175;-77
2021/12/02 10:21:56;;;;;;;5.82;1.98;;;3.30;91.60;;;;;;5029967;28;20060;-77
2021/12/02 10:24:25;;;;;;;8.45;2.15;;;3.40;91.20;;;;;;5031450;28;20045;-77
2021/12/02 10:26:55;;;;;;;8.30;2.03;;;3.40;91.00;;;;;;5046548;28;20041;-77
2021/12/02 10:29:46;;;;;;;4.97;1.58;;;3.40;90.60;;;;;;5019768;28;20077;-75
2021/12/02 10:32:22;;;;;;;7.25;2.70;;;3.50;90.30;;;;;;5048367;28;20554;-75
2021/12/02 10:34:52;;;;;;;7.88;2.33;;;3.50;90.90;;;;;;5049560;28;20067;-76
2021/12/02 10:37:21;;;;;;;4.78;2.03;;;3.50;90.50;;;;;;5028762;28;20056;-75
2021/12/02 10:40:15;;;;;;;6.60;1.98;;;3.60;90.70;;;;;;5048792;28;20040;-76
2021/12/02 10:42:44;;;;;;;4.97;2.10;;;3.60;89.40;;;;;;5032523;28;20120;-75
2021/12/02 10:45:21;;;;;;;4.30;1.60;;;3.60;91.30;;;;;;5032755;28;20056;-75
2021/12/02 10:47:49;;;;;;;5.93;1.77;;;3.60;90.60;;;;;;5048296;28;20049;-75
2021/12/02 10:50:17;;;;;;;4.55;2.10;;;3.70;91.10;;;;;;5049525;28;20045;-75
2021/12/02 10:52:44;;;;;;;5.90;2.30;;;3.70;89.10;;;;;;5030349;28;20057;-75
2021/12/02 10:55:16;;;;;;;9.50;2.13;;;3.70;90.00;;;;;;5049207;28;20044;-75
2021/12/02 10:57:48;;;;;;;2.63;1.45;;;3.70;88.40;;;;;;5047315;28;20055;-76
2021/12/02 11:00:20;;;;;;;5.32;1.52;;;3.60;89.70;;;;;;5029454;28;20087;-76
2021/12/02 11:02:49;;;;;;;7.75;1.60;;;3.70;87.90;;;;;;5030928;28;20053;-75
2021/12/02 11:05:24;;;;;;;4.63;1.60;;;3.70;90.00;;;;;;5032843;28;20480;-75
2021/12/02 11:07:58;;;;;;;4.57;1.67;;;3.70;89.50;;;;;;5032728;28;20057;-76
2021/12/02 11:10:25;;;;;;;3.13;1.65;;;3.70;87.90;;;;;;5047334;28;20487;-75
2021/12/02 11:12:54;;;;;;;5.65;2.25;;;3.70;88.60;;;;;;5028677;28;20496;-69
2021/12/02 11:15:24;;;;;;;24.05;10.70;;;3.80;90.20;;;;;;5030565;28;20061;-70
2021/12/02 11:17:59;;;;;;;18.50;10.18;;;3.80;89.60;;;;;;5033276;28;20127;-69
2021/12/02 11:20:34;;;;;;;7.05;2.70;;;3.90;87.80;;;;;;5028648;28;20108;-69
2021/12/02 11:23:03;;;;;;;3.60;1.60;;;4.00;87.20;;;;;;5029128;28;20054;-71
2021/12/02 11:25:31;;;;;;;5.82;1.63;;;4.00;87.60;;;;;;5032099;28;20041;-69
2021/12/02 11:28:02;;;;;;;4.28;1.75;;;4.00;89.30;;;;;;5031057;28;20053;-69
2021/12/02 11:30:29;;;;;;;9.50;2.10;;;4.00;87.50;;;;;;5016125;28;20052;-70
2021/12/02 11:33:02;;;;;;;6.13;1.90;;;4.00;87.20;;;;;;5037254;28;20041;-69
2021/12/02 11:35:34;;;;;;;4.25;1.80;;;4.00;87.90;;;;;;5053537;28;20068;-69
2021/12/02 11:38:10;;;;;;;77.43;50.35;;;4.00;87.90;;;;;;5052706;28;20045;-71
2021/12/02 11:40:42;;;;;;;229.32;138.98;;;4.00;87.80;;;;;;5051577;28;20136;-66
2021/12/02 11:43:12;;;;;;;11.52;5.50;;;4.00;89.90;;;;;;5060690;28;20405;-68
2021/12/02 11:45:46;;;;;;;6.80;2.60;;;4.10;87.90;;;;;;5030493;28;20128;-68
2021/12/02 11:48:24;;;;;;;11.50;2.13;;;4.10;86.20;;;;;;5051463;28;20048;-72
2021/12/02 11:51:02;;;;;;;7.95;3.25;;;4.10;88.70;;;;;;5036535;28;20051;-74
2021/12/02 11:53:29;;;;;;;8.40;1.73;;;4.20;88.60;;;;;;5043742;28;20128;-70
2021/12/02 11:55:58;;;;;;;3.92;1.45;;;4.10;88.50;;;;;;5051319;28;20045;-72
2021/12/02 11:58:25;;;;;;;3.67;1.73;;;4.20;89.30;;;;;;5049462;28;20049;-73
2021/12/02 12:00:52;;;;;;;8.82;2.03;;;4.10;87.40;;;;;;5053183;28;20053;-65
2021/12/02 12:03:28;;;;;;;2.50;1.52;;;4.20;89.10;;;;;;5052236;28;20412;-63
2021/12/02 12:06:00;;;;;;;4.00;1.52;;;4.20;87.70;;;;;;5051695;28;20053;-66
2021/12/02 12:08:46;;;;;;;6.10;1.58;;;4.20;87.60;;;;;;5051751;28;20377;-66
2021/12/02 12:11:21;;;;;;;7.82;2.55;;;4.30;88.40;;;;;;5031243;28;20052;-65
2021/12/02 12:13:50;;;;;;;7.82;2.13;;;4.30;87.80;;;;;;5042437;28;20048;-65
2021/12/02 12:16:23;;;;;;;5.28;2.67;;;4.30;87.30;;;;;;5051353;28;20052;-65
2021/12/02 12:18:52;;;;;;;6.38;1.73;;;4.20;88.00;;;;;;5050507;28;20560;-65
2021/12/02 12:21:37;;;;;;;6.53;2.10;;;4.20;88.00;;;;;;5035769;28;20049;-65
2021/12/02 12:24:04;;;;;;;5.63;1.75;;;4.30;87.90;;;;;;5031497;28;20798;-67
2021/12/02 12:26:38;;;;;;;4.80;1.50;;;4.30;89.50;;;;;;5033845;28;20056;-67
2021/12/02 12:31:33;;;;;;;24.90;14.90;;;4.40;88.20;;;;;;5053996;28;20089;-66
2021/12/02 12:34:01;;;;;;;9.00;3.90;;;4.40;88.00;;;;;;5051263;28;20082;-66
2021/12/02 12:36:39;;;;;;;5.15;1.77;;;4.50;87.60;;;;;;5052566;28;20051;-66
2021/12/02 12:39:30;;;;;;;5.13;2.10;;;4.50;87.60;;;;;;5031639;28;20501;-67
2021/12/02 12:42:11;;;;;;;18.27;3.20;;;4.50;90.40;;;;;;5032096;28;20054;-65
2021/12/02 12:44:47;;;;;;;11.48;2.15;;;4.60;88.40;;;;;;5051432;28;20045;-65
2021/12/02 12:47:15;;;;;;;5.63;1.90;;;4.50;86.90;;;;;;5052147;28;20097;-64
2021/12/02 12:49:42;;;;;;;4.47;1.90;;;4.50;87.40;;;;;;5050276;28;20048;-66
2021/12/02 12:52:17;;;;;;;15.68;3.40;;;4.50;88.50;;;;;;5034598;28;20067;-66
2021/12/02 12:55:17;;;;;;;8.77;2.25;;;4.50;88.50;;;;;;5049646;28;20087;-66
2021/12/02 12:58:06;;;;;;;5.65;2.00;;;4.50;87.00;;;;;;5029376;28;20090;-66
2021/12/02 13:00:38;;;;;;;5.67;2.10;;;4.50;87.50;;;;;;5052693;28;20045;-55
2021/12/02 13:03:15;;;;;;;5.45;1.90;;;4.60;88.00;;;;;;5033038;28;20054;-66
2021/12/02 13:05:44;;;;;;;8.52;2.05;;;4.70;85.80;;;;;;5047757;28;20044;-66
2021/12/02 13:08:25;;;;;;;6.13;1.63;;;4.70;86.60;;;;;;5050772;28;20063;-67
2021/12/02 13:11:00;;;;;;;6.80;1.90;;;4.70;86.50;;;;;;5034834;28;20096;-66
2021/12/02 13:13:32;;;;;;;3.67;1.75;;;4.70;87.50;;;;;;5050473;28;20072;-65
2021/12/02 13:16:16;;;;;;;6.07;2.35;;;4.70;88.80;;;;;;5034442;28;20124;-64
2021/12/02 13:18:51;;;;;;;6.88;1.85;;;4.70;86.70;;;;;;5050833;28;20053;-66
2021/12/02 13:21:30;;;;;;;3.33;1.50;;;4.80;85.80;;;;;;5044504;28;20053;-65
2021/12/02 13:24:07;;;;;;;;;;;4.80;86.50;;;;;;5049916;28;20071;-65
2021/12/02 13:26:44;;;;;;;4.95;1.98;;;4.80;86.10;;;;;;5051888;28;19921;-65
2021/12/02 13:29:16;;;;;;;3.83;1.60;;;4.80;86.00;;;;;;5050840;28;20049;-67
2021/12/02 13:31:47;;;;;;;6.88;2.47;;;4.80;86.40;;;;;;5050510;28;20104;-70
2021/12/02 13:34:15;;;;;;;6.13;2.15;;;4.90;88.20;;;;;;5049838;28;20124;-69
2021/12/02 13:36:57;;;;;;;3.33;1.83;;;4.90;86.90;;;;;;5043537;28;20049;-70
2021/12/02 13:39:34;;;;;;;118.72;82.88;;;4.90;86.80;;;;;;5049666;28;20097;-67
2021/12/02 13:42:02;;;;;;;7.95;3.42;;;5.00;85.80;;;;;;5058792;28;20397;-66